sensor_id;sensor_type;location;lat;lon;timestamp;P1;durP1;ratioP1;P2;durP2;ratioP2
10659;SDS011;5378;53.206;13.316;2023-06-22T00:02:01;10.43;;;7.07;;
10659;SDS011;5378;53.206;13.316;2023-06-22T00:04:49;9.90;;;7.90;;
10659;SDS011;5378;53.206;13.316;2023-06-22T00:07:36;10.97;;;8.00;;
10659;SDS011;5378;53.206;13.316;2023-06-22T00:10:23;13.80;;;7.20;;
10659;SDS011;5378;53.206;13.316;2023-06-22T00:13:12;9.90;;;7.20;;
10659;SDS011;5378;53.206;13.316;2023-06-22T00:15:59;13.30;;;7.90;;
10659;SDS011;5378;53.206;13.316;2023-06-22T00:18:47;11.53;;;7.43;;
10659;SDS011;5378;53.206;13.316;2023-06-22T00:21:34;9.77;;;7.60;;
10659;SDS011;5378;53.206;13.316;2023-06-22T00:24:23;11.50;;;7.10;;
10659;SDS011;5378;53.206;13.316;2023-06-22T00:27:10;9.70;;;8.13;;
10659;SDS011;5378;53.206;13.316;2023-06-22T00:29:59;8.83;;;7.33;;
10659;SDS011;5378;53.206;13.316;2023-06-22T00:32:47;16.70;;;7.77;;
10659;SDS011;5378;53.206;13.316;2023-06-22T00:35:34;8.10;;;6.37;;
10659;SDS011;5378;53.206;13.316;2023-06-22T00:38:21;14.50;;;8.20;;
10659;SDS011;5378;53.206;13.316;2023-06-22T00:41:08;9.80;;;7.20;;
10659;SDS011;5378;53.206;13.316;2023-06-22T00:43:55;12.70;;;7.50;;
10659;SDS011;5378;53.206;13.316;2023-06-22T00:46:43;13.80;;;7.30;;
10659;SDS011;5378;53.206;13.316;2023-06-22T00:49:30;14.30;;;7.93;;
10659;SDS011;5378;53.206;13.316;2023-06-22T00:52:18;12.20;;;6.90;;
10659;SDS011;5378;53.206;13.316;2023-06-22T00:55:07;14.50;;;8.00;;
10659;SDS011;5378;53.206;13.316;2023-06-22T00:57:55;12.60;;;7.77;;
10659;SDS011;5378;53.206;13.316;2023-06-22T01:00:42;10.87;;;7.10;;
10659;SDS011;5378;53.206;13.316;2023-06-22T01:03:31;9.90;;;7.10;;
10659;SDS011;5378;53.206;13.316;2023-06-22T01:06:24;10.20;;;7.67;;
10659;SDS011;5378;53.206;13.316;2023-06-22T01:09:19;8.80;;;6.60;;
10659;SDS011;5378;53.206;13.316;2023-06-22T01:12:13;9.37;;;7.57;;
10659;SDS011;5378;53.206;13.316;2023-06-22T01:15:05;11.30;;;8.00;;
10659;SDS011;5378;53.206;13.316;2023-06-22T01:17:55;9.40;;;7.47;;
10659;SDS011;5378;53.206;13.316;2023-06-22T01:20:45;11.10;;;7.43;;
10659;SDS011;5378;53.206;13.316;2023-06-22T01:23:37;8.83;;;6.37;;
10659;SDS011;5378;53.206;13.316;2023-06-22T01:26:36;17.83;;;7.30;;
10659;SDS011;5378;53.206;13.316;2023-06-22T01:29:27;12.77;;;7.50;;
10659;SDS011;5378;53.206;13.316;2023-06-22T01:32:15;9.20;;;7.10;;
10659;SDS011;5378;53.206;13.316;2023-06-22T01:35:03;8.67;;;6.40;;
10659;SDS011;5378;53.206;13.316;2023-06-22T01:37:53;9.93;;;7.20;;
10659;SDS011;5378;53.206;13.316;2023-06-22T01:40:41;8.77;;;6.57;;
10659;SDS011;5378;53.206;13.316;2023-06-22T01:43:28;8.47;;;5.80;;
10659;SDS011;5378;53.206;13.316;2023-06-22T01:46:17;10.53;;;6.57;;
10659;SDS011;5378;53.206;13.316;2023-06-22T01:49:05;12.43;;;7.33;;
10659;SDS011;5378;53.206;13.316;2023-06-22T01:51:54;10.00;;;7.10;;
10659;SDS011;5378;53.206;13.316;2023-06-22T01:54:42;9.80;;;7.50;;
10659;SDS011;5378;53.206;13.316;2023-06-22T01:57:30;8.30;;;6.20;;
10659;SDS011;5378;53.206;13.316;2023-06-22T02:00:18;16.97;;;6.80;;
10659;SDS011;5378;53.206;13.316;2023-06-22T02:03:10;11.30;;;7.80;;
10659;SDS011;5378;53.206;13.316;2023-06-22T02:06:02;10.10;;;6.70;;
10659;SDS011;5378;53.206;13.316;2023-06-22T02:08:53;10.30;;;7.70;;
10659;SDS011;5378;53.206;13.316;2023-06-22T02:11:45;8.57;;;6.90;;
10659;SDS011;5378;53.206;13.316;2023-06-22T02:14:33;10.20;;;7.90;;
10659;SDS011;5378;53.206;13.316;2023-06-22T02:17:22;12.30;;;7.90;;
10659;SDS011;5378;53.206;13.316;2023-06-22T02:20:13;9.33;;;6.90;;
10659;SDS011;5378;53.206;13.316;2023-06-22T02:23:00;9.43;;;6.90;;
10659;SDS011;5378;53.206;13.316;2023-06-22T02:25:47;12.80;;;7.77;;
10659;SDS011;5378;53.206;13.316;2023-06-22T02:28:34;9.67;;;7.17;;
10659;SDS011;5378;53.206;13.316;2023-06-22T02:31:21;10.90;;;8.07;;
10659;SDS011;5378;53.206;13.316;2023-06-22T02:34:16;7.13;;;6.33;;
10659;SDS011;5378;53.206;13.316;2023-06-22T02:37:05;13.93;;;7.60;;
10659;SDS011;5378;53.206;13.316;2023-06-22T02:39:52;11.23;;;6.97;;
10659;SDS011;5378;53.206;13.316;2023-06-22T02:42:39;11.63;;;6.43;;
10659;SDS011;5378;53.206;13.316;2023-06-22T02:45:26;12.57;;;6.80;;
10659;SDS011;5378;53.206;13.316;2023-06-22T02:48:13;11.43;;;6.80;;
10659;SDS011;5378;53.206;13.316;2023-06-22T02:51:01;9.10;;;6.73;;
10659;SDS011;5378;53.206;13.316;2023-06-22T02:53:49;10.87;;;6.80;;
10659;SDS011;5378;53.206;13.316;2023-06-22T02:56:38;9.97;;;6.13;;
10659;SDS011;5378;53.206;13.316;2023-06-22T02:59:26;7.20;;;6.30;;
10659;SDS011;5378;53.206;13.316;2023-06-22T03:02:19;9.50;;;6.30;;
10659;SDS011;5378;53.206;13.316;2023-06-22T03:05:07;11.03;;;6.27;;
10659;SDS011;5378;53.206;13.316;2023-06-22T03:07:59;10.20;;;6.50;;
10659;SDS011;5378;53.206;13.316;2023-06-22T03:10:52;14.17;;;6.83;;
10659;SDS011;5378;53.206;13.316;2023-06-22T03:13:39;11.57;;;6.90;;
10659;SDS011;5378;53.206;13.316;2023-06-22T03:16:26;7.40;;;5.83;;
10659;SDS011;5378;53.206;13.316;2023-06-22T03:19:15;9.57;;;6.33;;
10659;SDS011;5378;53.206;13.316;2023-06-22T03:22:02;9.70;;;5.90;;
10659;SDS011;5378;53.206;13.316;2023-06-22T03:24:49;7.80;;;5.70;;
10659;SDS011;5378;53.206;13.316;2023-06-22T03:27:37;8.93;;;7.27;;
10659;SDS011;5378;53.206;13.316;2023-06-22T03:30:26;7.27;;;6.00;;
10659;SDS011;5378;53.206;13.316;2023-06-22T03:33:13;8.63;;;5.80;;
10659;SDS011;5378;53.206;13.316;2023-06-22T03:36:00;7.80;;;5.50;;
10659;SDS011;5378;53.206;13.316;2023-06-22T03:38:48;7.47;;;5.53;;
10659;SDS011;5378;53.206;13.316;2023-06-22T03:41:36;5.57;;;4.80;;
10659;SDS011;5378;53.206;13.316;2023-06-22T03:44:25;8.40;;;5.33;;
10659;SDS011;5378;53.206;13.316;2023-06-22T03:47:12;6.13;;;5.00;;
10659;SDS011;5378;53.206;13.316;2023-06-22T03:49:59;7.57;;;4.83;;
10659;SDS011;5378;53.206;13.316;2023-06-22T03:52:50;7.60;;;5.33;;
10659;SDS011;5378;53.206;13.316;2023-06-22T03:55:40;6.30;;;4.80;;
10659;SDS011;5378;53.206;13.316;2023-06-22T03:58:33;6.20;;;4.77;;
10659;SDS011;5378;53.206;13.316;2023-06-22T04:01:23;9.03;;;5.47;;
10659;SDS011;5378;53.206;13.316;2023-06-22T04:04:10;6.10;;;5.00;;
10659;SDS011;5378;53.206;13.316;2023-06-22T04:06:58;5.77;;;4.83;;
10659;SDS011;5378;53.206;13.316;2023-06-22T04:09:45;7.03;;;5.50;;
10659;SDS011;5378;53.206;13.316;2023-06-22T04:12:32;7.37;;;5.17;;
10659;SDS011;5378;53.206;13.316;2023-06-22T04:15:20;9.10;;;6.03;;
10659;SDS011;5378;53.206;13.316;2023-06-22T04:18:08;6.03;;;5.20;;
10659;SDS011;5378;53.206;13.316;2023-06-22T04:20:55;7.30;;;5.60;;
10659;SDS011;5378;53.206;13.316;2023-06-22T04:23:42;5.37;;;4.50;;
10659;SDS011;5378;53.206;13.316;2023-06-22T04:26:29;7.00;;;5.37;;
10659;SDS011;5378;53.206;13.316;2023-06-22T04:29:16;8.20;;;6.30;;
10659;SDS011;5378;53.206;13.316;2023-06-22T04:32:03;8.40;;;6.10;;
10659;SDS011;5378;53.206;13.316;2023-06-22T04:34:53;12.53;;;6.30;;
10659;SDS011;5378;53.206;13.316;2023-06-22T04:37:40;7.57;;;5.40;;
10659;SDS011;5378;53.206;13.316;2023-06-22T04:40:27;6.90;;;6.17;;
10659;SDS011;5378;53.206;13.316;2023-06-22T04:43:14;11.20;;;6.53;;
10659;SDS011;5378;53.206;13.316;2023-06-22T04:46:01;8.40;;;6.00;;
10659;SDS011;5378;53.206;13.316;2023-06-22T04:48:49;7.90;;;5.70;;
10659;SDS011;5378;53.206;13.316;2023-06-22T04:51:40;8.23;;;6.10;;
10659;SDS011;5378;53.206;13.316;2023-06-22T04:54:28;7.80;;;5.30;;
10659;SDS011;5378;53.206;13.316;2023-06-22T04:57:18;9.10;;;5.97;;
10659;SDS011;5378;53.206;13.316;2023-06-22T05:00:06;7.40;;;5.20;;
10659;SDS011;5378;53.206;13.316;2023-06-22T05:02:58;7.17;;;5.23;;
10659;SDS011;5378;53.206;13.316;2023-06-22T05:05:48;6.40;;;5.50;;
10659;SDS011;5378;53.206;13.316;2023-06-22T05:08:37;7.83;;;5.83;;
10659;SDS011;5378;53.206;13.316;2023-06-22T05:11:24;8.17;;;5.60;;
10659;SDS011;5378;53.206;13.316;2023-06-22T05:14:12;9.33;;;6.00;;
10659;SDS011;5378;53.206;13.316;2023-06-22T05:16:59;7.53;;;5.73;;
10659;SDS011;5378;53.206;13.316;2023-06-22T05:19:49;6.00;;;4.90;;
10659;SDS011;5378;53.206;13.316;2023-06-22T05:22:36;6.40;;;5.17;;
10659;SDS011;5378;53.206;13.316;2023-06-22T05:25:24;6.80;;;4.90;;
10659;SDS011;5378;53.206;13.316;2023-06-22T05:28:12;8.17;;;5.27;;
10659;SDS011;5378;53.206;13.316;2023-06-22T05:30:59;5.97;;;5.07;;
10659;SDS011;5378;53.206;13.316;2023-06-22T05:33:46;7.53;;;4.53;;
10659;SDS011;5378;53.206;13.316;2023-06-22T05:36:34;5.77;;;4.60;;
10659;SDS011;5378;53.206;13.316;2023-06-22T05:39:21;5.97;;;5.37;;
10659;SDS011;5378;53.206;13.316;2023-06-22T05:42:10;7.80;;;5.20;;
10659;SDS011;5378;53.206;13.316;2023-06-22T05:44:57;6.93;;;5.27;;
10659;SDS011;5378;53.206;13.316;2023-06-22T05:47:44;5.63;;;4.73;;
10659;SDS011;5378;53.206;13.316;2023-06-22T05:50:31;4.50;;;4.10;;
10659;SDS011;5378;53.206;13.316;2023-06-22T05:53:19;5.00;;;4.00;;
10659;SDS011;5378;53.206;13.316;2023-06-22T05:56:06;3.63;;;3.33;;
10659;SDS011;5378;53.206;13.316;2023-06-22T05:58:54;4.83;;;3.27;;
10659;SDS011;5378;53.206;13.316;2023-06-22T06:01:41;7.30;;;3.07;;
10659;SDS011;5378;53.206;13.316;2023-06-22T06:04:28;6.50;;;3.53;;
10659;SDS011;5378;53.206;13.316;2023-06-22T06:07:15;5.80;;;4.33;;
10659;SDS011;5378;53.206;13.316;2023-06-22T06:10:03;4.40;;;3.40;;
10659;SDS011;5378;53.206;13.316;2023-06-22T06:12:51;5.67;;;3.57;;
10659;SDS011;5378;53.206;13.316;2023-06-22T06:15:40;6.00;;;3.10;;
10659;SDS011;5378;53.206;13.316;2023-06-22T06:18:27;4.40;;;2.60;;
10659;SDS011;5378;53.206;13.316;2023-06-22T06:21:14;3.17;;;2.80;;
10659;SDS011;5378;53.206;13.316;2023-06-22T06:24:02;3.43;;;3.00;;
10659;SDS011;5378;53.206;13.316;2023-06-22T06:26:49;4.67;;;3.33;;
10659;SDS011;5378;53.206;13.316;2023-06-22T06:29:36;4.30;;;3.33;;
10659;SDS011;5378;53.206;13.316;2023-06-22T06:32:24;3.40;;;3.10;;
10659;SDS011;5378;53.206;13.316;2023-06-22T06:35:12;4.13;;;2.63;;
10659;SDS011;5378;53.206;13.316;2023-06-22T06:38:00;4.77;;;3.57;;
10659;SDS011;5378;53.206;13.316;2023-06-22T06:40:47;3.20;;;2.80;;
10659;SDS011;5378;53.206;13.316;2023-06-22T06:43:34;2.93;;;2.63;;
10659;SDS011;5378;53.206;13.316;2023-06-22T06:46:22;3.87;;;3.00;;
10659;SDS011;5378;53.206;13.316;2023-06-22T06:49:10;4.90;;;3.03;;
10659;SDS011;5378;53.206;13.316;2023-06-22T06:51:57;3.03;;;2.73;;
10659;SDS011;5378;53.206;13.316;2023-06-22T06:54:44;5.07;;;3.70;;
10659;SDS011;5378;53.206;13.316;2023-06-22T06:57:31;2.80;;;2.40;;
10659;SDS011;5378;53.206;13.316;2023-06-22T07:00:19;2.80;;;2.30;;
10659;SDS011;5378;53.206;13.316;2023-06-22T07:03:08;4.33;;;2.90;;
10659;SDS011;5378;53.206;13.316;2023-06-22T07:05:56;5.00;;;2.47;;
10659;SDS011;5378;53.206;13.316;2023-06-22T07:08:43;2.77;;;2.40;;
10659;SDS011;5378;53.206;13.316;2023-06-22T07:11:30;5.97;;;2.30;;
10659;SDS011;5378;53.206;13.316;2023-06-22T07:14:17;2.50;;;2.30;;
10659;SDS011;5378;53.206;13.316;2023-06-22T07:17:04;15.20;;;4.17;;
10659;SDS011;5378;53.206;13.316;2023-06-22T07:19:52;2.57;;;2.30;;
10659;SDS011;5378;53.206;13.316;2023-06-22T07:22:40;4.50;;;2.90;;
10659;SDS011;5378;53.206;13.316;2023-06-22T07:25:28;4.47;;;2.43;;
10659;SDS011;5378;53.206;13.316;2023-06-22T07:28:15;3.10;;;2.40;;
10659;SDS011;5378;53.206;13.316;2023-06-22T07:31:02;3.47;;;1.70;;
10659;SDS011;5378;53.206;13.316;2023-06-22T07:33:50;3.07;;;2.30;;
10659;SDS011;5378;53.206;13.316;2023-06-22T07:36:37;3.97;;;2.80;;
10659;SDS011;5378;53.206;13.316;2023-06-22T07:39:25;3.63;;;2.13;;
10659;SDS011;5378;53.206;13.316;2023-06-22T07:42:13;4.00;;;2.20;;
10659;SDS011;5378;53.206;13.316;2023-06-22T07:45:04;2.30;;;2.10;;
10659;SDS011;5378;53.206;13.316;2023-06-22T07:47:53;3.60;;;2.40;;
10659;SDS011;5378;53.206;13.316;2023-06-22T07:50:40;3.03;;;2.13;;
10659;SDS011;5378;53.206;13.316;2023-06-22T07:53:28;2.33;;;2.10;;
10659;SDS011;5378;53.206;13.316;2023-06-22T07:56:16;4.40;;;2.40;;
10659;SDS011;5378;53.206;13.316;2023-06-22T07:59:04;4.23;;;3.00;;
10659;SDS011;5378;53.206;13.316;2023-06-22T08:01:51;3.43;;;2.47;;
10659;SDS011;5378;53.206;13.316;2023-06-22T08:04:38;4.17;;;2.53;;
10659;SDS011;5378;53.206;13.316;2023-06-22T08:07:25;3.10;;;2.67;;
10659;SDS011;5378;53.206;13.316;2023-06-22T08:10:12;4.30;;;2.60;;
10659;SDS011;5378;53.206;13.316;2023-06-22T08:13:01;3.50;;;2.40;;
10659;SDS011;5378;53.206;13.316;2023-06-22T08:15:48;2.83;;;2.50;;
10659;SDS011;5378;53.206;13.316;2023-06-22T08:18:35;3.17;;;2.40;;
10659;SDS011;5378;53.206;13.316;2023-06-22T08:21:23;2.43;;;2.20;;
10659;SDS011;5378;53.206;13.316;2023-06-22T08:24:10;2.93;;;2.63;;
10659;SDS011;5378;53.206;13.316;2023-06-22T08:26:57;3.07;;;2.70;;
10659;SDS011;5378;53.206;13.316;2023-06-22T08:29:45;4.60;;;3.03;;
10659;SDS011;5378;53.206;13.316;2023-06-22T08:32:33;3.73;;;2.57;;
10659;SDS011;5378;53.206;13.316;2023-06-22T08:35:20;3.43;;;2.90;;
10659;SDS011;5378;53.206;13.316;2023-06-22T08:38:07;3.40;;;3.10;;
10659;SDS011;5378;53.206;13.316;2023-06-22T08:40:54;2.73;;;2.53;;
10659;SDS011;5378;53.206;13.316;2023-06-22T08:43:41;3.13;;;2.67;;
10659;SDS011;5378;53.206;13.316;2023-06-22T08:46:30;5.67;;;3.17;;
10659;SDS011;5378;53.206;13.316;2023-06-22T08:49:18;4.83;;;2.47;;
10659;SDS011;5378;53.206;13.316;2023-06-22T08:52:06;3.47;;;2.97;;
10659;SDS011;5378;53.206;13.316;2023-06-22T08:54:54;5.97;;;3.57;;
10659;SDS011;5378;53.206;13.316;2023-06-22T08:57:41;3.30;;;3.00;;
10659;SDS011;5378;53.206;13.316;2023-06-22T09:00:30;5.50;;;3.10;;
10659;SDS011;5378;53.206;13.316;2023-06-22T09:03:21;3.53;;;3.10;;
10659;SDS011;5378;53.206;13.316;2023-06-22T09:06:12;3.67;;;2.90;;
10659;SDS011;5378;53.206;13.316;2023-06-22T09:09:00;2.77;;;2.57;;
10659;SDS011;5378;53.206;13.316;2023-06-22T09:11:47;3.20;;;2.70;;
10659;SDS011;5378;53.206;13.316;2023-06-22T09:14:34;3.60;;;2.83;;
10659;SDS011;5378;53.206;13.316;2023-06-22T09:17:21;3.60;;;3.00;;
10659;SDS011;5378;53.206;13.316;2023-06-22T09:20:10;3.70;;;3.17;;
10659;SDS011;5378;53.206;13.316;2023-06-22T09:22:58;4.20;;;3.10;;
10659;SDS011;5378;53.206;13.316;2023-06-22T09:25:45;3.30;;;2.70;;
10659;SDS011;5378;53.206;13.316;2023-06-22T09:28:33;3.23;;;2.80;;
10659;SDS011;5378;53.206;13.316;2023-06-22T09:31:20;7.10;;;3.23;;
10659;SDS011;5378;53.206;13.316;2023-06-22T09:34:11;2.83;;;2.50;;
10659;SDS011;5378;53.206;13.316;2023-06-22T09:36:59;7.77;;;2.90;;
10659;SDS011;5378;53.206;13.316;2023-06-22T09:39:46;3.50;;;2.80;;
10659;SDS011;5378;53.206;13.316;2023-06-22T09:42:33;3.67;;;2.97;;
10659;SDS011;5378;53.206;13.316;2023-06-22T09:45:20;5.10;;;2.90;;
10659;SDS011;5378;53.206;13.316;2023-06-22T09:48:07;3.57;;;3.00;;
10659;SDS011;5378;53.206;13.316;2023-06-22T09:50:55;4.03;;;2.80;;
10659;SDS011;5378;53.206;13.316;2023-06-22T09:53:43;4.10;;;3.10;;
10659;SDS011;5378;53.206;13.316;2023-06-22T09:56:30;3.90;;;3.20;;
10659;SDS011;5378;53.206;13.316;2023-06-22T09:59:18;3.20;;;2.87;;
10659;SDS011;5378;53.206;13.316;2023-06-22T10:02:05;3.50;;;2.70;;
10659;SDS011;5378;53.206;13.316;2023-06-22T10:04:52;5.77;;;2.90;;
10659;SDS011;5378;53.206;13.316;2023-06-22T10:07:40;3.40;;;3.10;;
10659;SDS011;5378;53.206;13.316;2023-06-22T10:10:30;3.50;;;2.67;;
10659;SDS011;5378;53.206;13.316;2023-06-22T10:13:16;3.77;;;3.20;;
10659;SDS011;5378;53.206;13.316;2023-06-22T10:16:04;4.20;;;3.37;;
10659;SDS011;5378;53.206;13.316;2023-06-22T10:18:52;6.07;;;4.27;;
10659;SDS011;5378;53.206;13.316;2023-06-22T10:21:39;4.27;;;3.20;;
10659;SDS011;5378;53.206;13.316;2023-06-22T10:24:26;5.50;;;4.43;;
10659;SDS011;5378;53.206;13.316;2023-06-22T10:27:14;8.83;;;4.07;;
10659;SDS011;5378;53.206;13.316;2023-06-22T10:30:01;4.47;;;3.23;;
10659;SDS011;5378;53.206;13.316;2023-06-22T10:32:51;4.27;;;3.47;;
10659;SDS011;5378;53.206;13.316;2023-06-22T10:35:38;4.37;;;3.20;;
10659;SDS011;5378;53.206;13.316;2023-06-22T10:38:25;5.90;;;4.07;;
10659;SDS011;5378;53.206;13.316;2023-06-22T10:41:12;6.80;;;4.13;;
10659;SDS011;5378;53.206;13.316;2023-06-22T10:44:01;4.33;;;3.50;;
10659;SDS011;5378;53.206;13.316;2023-06-22T10:46:48;6.00;;;3.50;;
10659;SDS011;5378;53.206;13.316;2023-06-22T10:49:35;5.30;;;3.80;;
10659;SDS011;5378;53.206;13.316;2023-06-22T10:52:22;6.50;;;4.70;;
10659;SDS011;5378;53.206;13.316;2023-06-22T10:55:09;6.87;;;4.50;;
10659;SDS011;5378;53.206;13.316;2023-06-22T10:57:56;6.00;;;4.00;;
10659;SDS011;5378;53.206;13.316;2023-06-22T11:00:45;5.50;;;3.50;;
10659;SDS011;5378;53.206;13.316;2023-06-22T11:03:32;4.57;;;3.63;;
10659;SDS011;5378;53.206;13.316;2023-06-22T11:06:19;4.93;;;3.73;;
10659;SDS011;5378;53.206;13.316;2023-06-22T11:09:06;5.93;;;4.40;;
10659;SDS011;5378;53.206;13.316;2023-06-22T11:12:02;5.30;;;4.30;;
10659;SDS011;5378;53.206;13.316;2023-06-22T11:14:49;5.13;;;3.80;;
10659;SDS011;5378;53.206;13.316;2023-06-22T11:17:38;7.30;;;4.50;;
10659;SDS011;5378;53.206;13.316;2023-06-22T11:20:25;4.40;;;3.60;;
10659;SDS011;5378;53.206;13.316;2023-06-22T11:23:13;7.60;;;4.00;;
10659;SDS011;5378;53.206;13.316;2023-06-22T11:25:59;7.20;;;3.70;;
10659;SDS011;5378;53.206;13.316;2023-06-22T11:28:46;4.60;;;3.60;;
10659;SDS011;5378;53.206;13.316;2023-06-22T11:31:33;4.67;;;4.20;;
10659;SDS011;5378;53.206;13.316;2023-06-22T11:34:22;4.47;;;4.03;;
10659;SDS011;5378;53.206;13.316;2023-06-22T11:37:10;5.07;;;3.70;;
10659;SDS011;5378;53.206;13.316;2023-06-22T11:39:57;4.90;;;4.40;;
10659;SDS011;5378;53.206;13.316;2023-06-22T11:42:50;4.67;;;3.73;;
10659;SDS011;5378;53.206;13.316;2023-06-22T11:45:37;6.20;;;3.83;;
10659;SDS011;5378;53.206;13.316;2023-06-22T11:48:24;4.97;;;4.13;;
10659;SDS011;5378;53.206;13.316;2023-06-22T11:51:12;6.33;;;5.10;;
10659;SDS011;5378;53.206;13.316;2023-06-22T11:53:59;6.53;;;4.80;;
10659;SDS011;5378;53.206;13.316;2023-06-22T11:56:47;8.10;;;4.43;;
10659;SDS011;5378;53.206;13.316;2023-06-22T11:59:34;5.73;;;3.80;;
10659;SDS011;5378;53.206;13.316;2023-06-22T12:02:21;5.63;;;4.37;;
10659;SDS011;5378;53.206;13.316;2023-06-22T12:05:09;6.70;;;4.50;;
10659;SDS011;5378;53.206;13.316;2023-06-22T12:07:57;6.00;;;4.20;;
10659;SDS011;5378;53.206;13.316;2023-06-22T12:10:44;5.00;;;4.30;;
10659;SDS011;5378;53.206;13.316;2023-06-22T12:13:31;7.70;;;4.07;;
10659;SDS011;5378;53.206;13.316;2023-06-22T12:16:18;7.27;;;4.10;;
10659;SDS011;5378;53.206;13.316;2023-06-22T12:19:07;6.67;;;4.23;;
10659;SDS011;5378;53.206;13.316;2023-06-22T12:21:53;5.50;;;4.43;;
10659;SDS011;5378;53.206;13.316;2023-06-22T12:24:42;5.33;;;4.27;;
10659;SDS011;5378;53.206;13.316;2023-06-22T12:27:29;5.80;;;4.60;;
10659;SDS011;5378;53.206;13.316;2023-06-22T12:30:16;5.57;;;4.60;;
10659;SDS011;5378;53.206;13.316;2023-06-22T12:33:03;4.83;;;3.90;;
10659;SDS011;5378;53.206;13.316;2023-06-22T12:35:51;10.27;;;4.00;;
10659;SDS011;5378;53.206;13.316;2023-06-22T12:38:37;5.90;;;4.00;;
10659;SDS011;5378;53.206;13.316;2023-06-22T12:41:26;5.00;;;4.50;;
10659;SDS011;5378;53.206;13.316;2023-06-22T12:44:13;4.47;;;3.93;;
10659;SDS011;5378;53.206;13.316;2023-06-22T12:47:00;5.90;;;4.23;;
10659;SDS011;5378;53.206;13.316;2023-06-22T12:49:47;5.83;;;3.43;;
10659;SDS011;5378;53.206;13.316;2023-06-22T12:52:36;4.90;;;3.67;;
10659;SDS011;5378;53.206;13.316;2023-06-22T12:55:24;3.93;;;3.40;;
10659;SDS011;5378;53.206;13.316;2023-06-22T12:58:12;7.67;;;3.97;;
10659;SDS011;5378;53.206;13.316;2023-06-22T13:00:59;5.00;;;4.20;;
10659;SDS011;5378;53.206;13.316;2023-06-22T13:03:46;5.67;;;4.03;;
10659;SDS011;5378;53.206;13.316;2023-06-22T13:06:33;5.77;;;4.53;;
10659;SDS011;5378;53.206;13.316;2023-06-22T13:09:20;5.60;;;4.00;;
10659;SDS011;5378;53.206;13.316;2023-06-22T13:12:07;5.83;;;4.00;;
10659;SDS011;5378;53.206;13.316;2023-06-22T13:14:56;5.80;;;4.00;;
10659;SDS011;5378;53.206;13.316;2023-06-22T13:17:44;4.73;;;4.13;;
10659;SDS011;5378;53.206;13.316;2023-06-22T13:20:31;7.30;;;4.00;;
10659;SDS011;5378;53.206;13.316;2023-06-22T13:23:18;8.50;;;4.40;;
10659;SDS011;5378;53.206;13.316;2023-06-22T13:26:05;4.97;;;3.90;;
10659;SDS011;5378;53.206;13.316;2023-06-22T13:28:52;4.50;;;3.90;;
10659;SDS011;5378;53.206;13.316;2023-06-22T13:31:40;8.17;;;4.60;;
10659;SDS011;5378;53.206;13.316;2023-06-22T13:34:28;5.63;;;3.47;;
10659;SDS011;5378;53.206;13.316;2023-06-22T13:37:15;4.73;;;4.00;;
10659;SDS011;5378;53.206;13.316;2023-06-22T13:40:01;5.97;;;4.73;;
10659;SDS011;5378;53.206;13.316;2023-06-22T13:42:52;5.63;;;4.30;;
10659;SDS011;5378;53.206;13.316;2023-06-22T13:45:40;7.50;;;4.60;;
10659;SDS011;5378;53.206;13.316;2023-06-22T13:48:30;6.53;;;4.47;;
10659;SDS011;5378;53.206;13.316;2023-06-22T13:51:17;7.77;;;3.80;;
10659;SDS011;5378;53.206;13.316;2023-06-22T13:54:04;4.60;;;3.97;;
10659;SDS011;5378;53.206;13.316;2023-06-22T13:56:52;5.30;;;4.20;;
10659;SDS011;5378;53.206;13.316;2023-06-22T13:59:40;6.30;;;4.90;;
10659;SDS011;5378;53.206;13.316;2023-06-22T14:02:27;5.53;;;4.10;;
10659;SDS011;5378;53.206;13.316;2023-06-22T14:05:15;5.43;;;4.40;;
10659;SDS011;5378;53.206;13.316;2023-06-22T14:08:02;5.10;;;4.47;;
10659;SDS011;5378;53.206;13.316;2023-06-22T14:10:51;6.50;;;4.40;;
10659;SDS011;5378;53.206;13.316;2023-06-22T14:13:40;5.80;;;4.37;;
10659;SDS011;5378;53.206;13.316;2023-06-22T14:16:28;4.53;;;3.40;;
10659;SDS011;5378;53.206;13.316;2023-06-22T14:19:16;6.00;;;3.80;;
10659;SDS011;5378;53.206;13.316;2023-06-22T14:22:05;5.77;;;4.53;;
10659;SDS011;5378;53.206;13.316;2023-06-22T14:24:52;8.20;;;4.10;;
10659;SDS011;5378;53.206;13.316;2023-06-22T14:27:41;5.70;;;4.00;;
10659;SDS011;5378;53.206;13.316;2023-06-22T14:30:30;5.87;;;4.57;;
10659;SDS011;5378;53.206;13.316;2023-06-22T14:33:17;5.00;;;4.30;;
10659;SDS011;5378;53.206;13.316;2023-06-22T14:36:04;5.40;;;4.33;;
10659;SDS011;5378;53.206;13.316;2023-06-22T14:38:58;7.13;;;4.07;;
10659;SDS011;5378;53.206;13.316;2023-06-22T14:41:45;5.67;;;4.57;;
10659;SDS011;5378;53.206;13.316;2023-06-22T14:44:32;6.43;;;4.77;;
10659;SDS011;5378;53.206;13.316;2023-06-22T14:47:19;5.90;;;3.93;;
10659;SDS011;5378;53.206;13.316;2023-06-22T14:50:06;9.90;;;5.37;;
10659;SDS011;5378;53.206;13.316;2023-06-22T14:52:53;7.03;;;4.60;;
10659;SDS011;5378;53.206;13.316;2023-06-22T14:55:42;6.57;;;4.50;;
10659;SDS011;5378;53.206;13.316;2023-06-22T14:58:29;4.73;;;3.93;;
10659;SDS011;5378;53.206;13.316;2023-06-22T15:01:18;5.50;;;4.67;;
10659;SDS011;5378;53.206;13.316;2023-06-22T15:04:05;5.63;;;3.90;;
10659;SDS011;5378;53.206;13.316;2023-06-22T15:06:53;5.63;;;4.20;;
10659;SDS011;5378;53.206;13.316;2023-06-22T15:09:40;4.70;;;3.97;;
10659;SDS011;5378;53.206;13.316;2023-06-22T15:12:29;5.27;;;4.10;;
10659;SDS011;5378;53.206;13.316;2023-06-22T15:15:16;5.70;;;4.37;;
10659;SDS011;5378;53.206;13.316;2023-06-22T15:18:04;6.00;;;4.50;;
10659;SDS011;5378;53.206;13.316;2023-06-22T15:20:51;5.97;;;4.33;;
10659;SDS011;5378;53.206;13.316;2023-06-22T15:23:38;6.50;;;4.20;;
10659;SDS011;5378;53.206;13.316;2023-06-22T15:26:25;6.10;;;4.80;;
10659;SDS011;5378;53.206;13.316;2023-06-22T15:29:14;8.80;;;4.73;;
10659;SDS011;5378;53.206;13.316;2023-06-22T15:32:00;5.13;;;4.03;;
10659;SDS011;5378;53.206;13.316;2023-06-22T15:34:48;5.47;;;4.23;;
10659;SDS011;5378;53.206;13.316;2023-06-22T15:37:38;6.60;;;4.87;;
10659;SDS011;5378;53.206;13.316;2023-06-22T15:40:25;7.50;;;4.03;;
10659;SDS011;5378;53.206;13.316;2023-06-22T15:43:12;5.33;;;4.00;;
10659;SDS011;5378;53.206;13.316;2023-06-22T15:46:01;7.30;;;4.13;;
10659;SDS011;5378;53.206;13.316;2023-06-22T15:48:48;6.87;;;4.70;;
10659;SDS011;5378;53.206;13.316;2023-06-22T15:51:35;12.23;;;4.27;;
10659;SDS011;5378;53.206;13.316;2023-06-22T15:54:22;6.67;;;4.33;;
10659;SDS011;5378;53.206;13.316;2023-06-22T15:57:10;4.77;;;3.97;;
10659;SDS011;5378;53.206;13.316;2023-06-22T15:59:58;6.00;;;4.23;;
10659;SDS011;5378;53.206;13.316;2023-06-22T16:02:46;6.50;;;3.93;;
10659;SDS011;5378;53.206;13.316;2023-06-22T16:05:34;8.53;;;4.40;;
10659;SDS011;5378;53.206;13.316;2023-06-22T16:08:21;5.70;;;4.57;;
10659;SDS011;5378;53.206;13.316;2023-06-22T16:11:10;6.13;;;4.77;;
10659;SDS011;5378;53.206;13.316;2023-06-22T16:13:57;9.53;;;4.40;;
10659;SDS011;5378;53.206;13.316;2023-06-22T16:16:44;5.50;;;4.10;;
10659;SDS011;5378;53.206;13.316;2023-06-22T16:19:33;5.00;;;3.80;;
10659;SDS011;5378;53.206;13.316;2023-06-22T16:22:20;4.03;;;3.50;;
10659;SDS011;5378;53.206;13.316;2023-06-22T16:25:07;6.43;;;4.73;;
10659;SDS011;5378;53.206;13.316;2023-06-22T16:27:54;5.30;;;4.20;;
10659;SDS011;5378;53.206;13.316;2023-06-22T16:30:41;5.33;;;4.80;;
10659;SDS011;5378;53.206;13.316;2023-06-22T16:33:29;5.20;;;4.17;;
10659;SDS011;5378;53.206;13.316;2023-06-22T16:36:17;5.00;;;3.90;;
10659;SDS011;5378;53.206;13.316;2023-06-22T16:39:04;5.50;;;4.10;;
10659;SDS011;5378;53.206;13.316;2023-06-22T16:41:51;5.97;;;3.83;;
10659;SDS011;5378;53.206;13.316;2023-06-22T16:44:39;4.60;;;3.53;;
10659;SDS011;5378;53.206;13.316;2023-06-22T16:47:26;5.33;;;3.57;;
10659;SDS011;5378;53.206;13.316;2023-06-22T16:50:15;5.10;;;4.17;;